sensor_id;sensor_type;location;lat;lon;timestamp;pressure;altitude;pressure_sealevel;temperature;humidity
10958;BME280;5531;42.570;23.676;2023-06-05T00:00:13;57190.16;;;-147.01;100.00
10958;BME280;5531;42.570;23.676;2023-06-05T00:02:43;57190.16;;;-147.01;100.00
10958;BME280;5531;42.570;23.676;2023-06-05T00:05:13;57190.16;;;-147.01;100.00
10958;BME280;5531;42.570;23.676;2023-06-05T00:07:46;57190.16;;;-147.01;100.00
10958;BME280;5531;42.570;23.676;2023-06-05T00:10:15;57190.16;;;-147.01;100.00
10958;BME280;5531;42.570;23.676;2023-06-05T00:12:45;57190.16;;;-147.01;100.00
10958;BME280;5531;42.570;23.676;2023-06-05T00:15:14;57190.16;;;-147.01;100.00
10958;BME280;5531;42.570;23.676;2023-06-05T00:17:42;57190.16;;;-147.01;100.00
10958;BME280;5531;42.570;23.676;2023-06-05T00:20:13;57190.16;;;-147.01;100.00
10958;BME280;5531;42.570;23.676;2023-06-05T00:22:42;57190.16;;;-147.01;100.00
10958;BME280;5531;42.570;23.676;2023-06-05T00:25:15;57190.16;;;-147.01;100.00
10958;BME280;5531;42.570;23.676;2023-06-05T00:27:44;57190.16;;;-147.01;100.00
10958;BME280;5531;42.570;23.676;2023-06-05T00:30:13;57190.16;;;-147.01;100.00
10958;BME280;5531;42.570;23.676;2023-06-05T00:32:42;57190.16;;;-147.01;100.00
10958;BME280;5531;42.570;23.676;2023-06-05T00:35:11;57190.16;;;-147.01;100.00
10958;BME280;5531;42.570;23.676;2023-06-05T00:37:41;57190.16;;;-147.01;100.00
10958;BME280;5531;42.570;23.676;2023-06-05T00:40:15;57190.16;;;-147.01;100.00
10958;BME280;5531;42.570;23.676;2023-06-05T00:42:44;57190.16;;;-147.01;100.00
10958;BME280;5531;42.570;23.676;2023-06-05T00:45:13;57190.16;;;-147.01;100.00
10958;BME280;5531;42.570;23.676;2023-06-05T00:47:42;57190.16;;;-147.01;100.00
10958;BME280;5531;42.570;23.676;2023-06-05T00:50:13;57190.16;;;-147.01;100.00
10958;BME280;5531;42.570;23.676;2023-06-05T00:52:43;57190.16;;;-147.01;100.00
10958;BME280;5531;42.570;23.676;2023-06-05T00:55:15;57190.16;;;-147.01;100.00
10958;BME280;5531;42.570;23.676;2023-06-05T00:57:44;57190.16;;;-147.01;100.00
10958;BME280;5531;42.570;23.676;2023-06-05T01:00:14;57190.16;;;-147.01;100.00
10958;BME280;5531;42.570;23.676;2023-06-05T01:02:44;57190.16;;;-147.01;100.00
10958;BME280;5531;42.570;23.676;2023-06-05T01:05:13;57190.16;;;-147.01;100.00
10958;BME280;5531;42.570;23.676;2023-06-05T01:07:43;57190.16;;;-147.01;100.00
10958;BME280;5531;42.570;23.676;2023-06-05T01:10:16;57190.16;;;-147.01;100.00
10958;BME280;5531;42.570;23.676;2023-06-05T01:12:51;57190.16;;;-147.01;100.00
10958;BME280;5531;42.570;23.676;2023-06-05T01:15:23;57190.16;;;-147.01;100.00
10958;BME280;5531;42.570;23.676;2023-06-05T01:17:55;57190.16;;;-147.01;100.00
10958;BME280;5531;42.570;23.676;2023-06-05T01:20:32;57190.16;;;-147.01;100.00
10958;BME280;5531;42.570;23.676;2023-06-05T01:23:04;57190.16;;;-147.01;100.00
10958;BME280;5531;42.570;23.676;2023-06-05T01:25:34;57190.16;;;-147.01;100.00
10958;BME280;5531;42.570;23.676;2023-06-05T01:28:08;57190.16;;;-147.01;100.00
10958;BME280;5531;42.570;23.676;2023-06-05T01:30:44;57190.16;;;-147.01;100.00
10958;BME280;5531;42.570;23.676;2023-06-05T01:33:24;57190.16;;;-147.01;100.00
10958;BME280;5531;42.570;23.676;2023-06-05T01:35:55;57190.16;;;-147.01;100.00
10958;BME280;5531;42.570;23.676;2023-06-05T01:38:33;57190.16;;;-147.01;100.00
10958;BME280;5531;42.570;23.676;2023-06-05T01:41:03;57190.16;;;-147.01;100.00
10958;BME280;5531;42.570;23.676;2023-06-05T01:43:33;57190.16;;;-147.01;100.00
10958;BME280;5531;42.570;23.676;2023-06-05T01:46:04;57190.16;;;-147.01;100.00
10958;BME280;5531;42.570;23.676;2023-06-05T01:48:35;57190.16;;;-147.01;100.00
10958;BME280;5531;42.570;23.676;2023-06-05T01:51:08;57190.16;;;-147.01;100.00
10958;BME280;5531;42.570;23.676;2023-06-05T01:53:40;57190.16;;;-147.01;100.00
10958;BME280;5531;42.570;23.676;2023-06-05T01:56:09;57190.16;;;-147.01;100.00
10958;BME280;5531;42.570;23.676;2023-06-05T01:58:38;57190.16;;;-147.01;100.00
10958;BME280;5531;42.570;23.676;2023-06-05T02:01:07;57190.16;;;-147.01;100.00
10958;BME280;5531;42.570;23.676;2023-06-05T02:03:36;57190.16;;;-147.01;100.00
10958;BME280;5531;42.570;23.676;2023-06-05T02:06:06;57190.16;;;-147.01;100.00
10958;BME280;5531;42.570;23.676;2023-06-05T02:08:35;57190.16;;;-147.01;100.00
10958;BME280;5531;42.570;23.676;2023-06-05T02:11:07;57190.16;;;-147.01;100.00
10958;BME280;5531;42.570;23.676;2023-06-05T02:13:37;57190.16;;;-147.01;100.00
10958;BME280;5531;42.570;23.676;2023-06-05T02:16:10;57190.16;;;-147.01;100.00
10958;BME280;5531;42.570;23.676;2023-06-05T02:18:39;57190.16;;;-147.01;100.00
10958;BME280;5531;42.570;23.676;2023-06-05T02:21:09;57190.16;;;-147.01;100.00
10958;BME280;5531;42.570;23.676;2023-06-05T02:23:40;57190.16;;;-147.01;100.00
10958;BME280;5531;42.570;23.676;2023-06-05T02:26:12;57190.16;;;-147.01;100.00
10958;BME280;5531;42.570;23.676;2023-06-05T02:28:43;57190.16;;;-147.01;100.00
10958;BME280;5531;42.570;23.676;2023-06-05T02:31:12;57190.16;;;-147.01;100.00
10958;BME280;5531;42.570;23.676;2023-06-05T02:33:42;57190.16;;;-147.01;100.00
10958;BME280;5531;42.570;23.676;2023-06-05T02:36:11;57190.16;;;-147.01;100.00
10958;BME280;5531;42.570;23.676;2023-06-05T02:38:41;57190.16;;;-147.01;100.00
10958;BME280;5531;42.570;23.676;2023-06-05T02:41:13;57190.16;;;-147.01;100.00
10958;BME280;5531;42.570;23.676;2023-06-05T02:43:42;57190.16;;;-147.01;100.00
10958;BME280;5531;42.570;23.676;2023-06-05T02:46:11;57190.16;;;-147.01;100.00
10958;BME280;5531;42.570;23.676;2023-06-05T02:48:40;57190.16;;;-147.01;100.00
10958;BME280;5531;42.570;23.676;2023-06-05T02:51:10;57190.16;;;-147.01;100.00
10958;BME280;5531;42.570;23.676;2023-06-05T02:53:39;57190.16;;;-147.01;100.00
10958;BME280;5531;42.570;23.676;2023-06-05T02:56:08;57190.16;;;-147.01;100.00
10958;BME280;5531;42.570;23.676;2023-06-05T02:58:42;57190.16;;;-147.01;100.00
10958;BME280;5531;42.570;23.676;2023-06-05T03:01:12;57190.16;;;-147.01;100.00
10958;BME280;5531;42.570;23.676;2023-06-05T03:03:41;57190.16;;;-147.01;100.00
10958;BME280;5531;42.570;23.676;2023-06-05T03:06:10;57190.16;;;-147.01;100.00
10958;BME280;5531;42.570;23.676;2023-06-05T03:08:43;57190.16;;;-147.01;100.00
10958;BME280;5531;42.570;23.676;2023-06-05T03:11:13;57190.16;;;-147.01;100.00
10958;BME280;5531;42.570;23.676;2023-06-05T03:13:44;57190.16;;;-147.01;100.00
10958;BME280;5531;42.570;23.676;2023-06-05T03:16:13;57190.16;;;-147.01;100.00
10958;BME280;5531;42.570;23.676;2023-06-05T03:18:43;57190.16;;;-147.01;100.00
10958;BME280;5531;42.570;23.676;2023-06-05T03:21:13;57190.16;;;-147.01;100.00
10958;BME280;5531;42.570;23.676;2023-06-05T03:23:42;57190.16;;;-147.01;100.00
10958;BME280;5531;42.570;23.676;2023-06-05T03:26:11;57190.16;;;-147.01;100.00
10958;BME280;5531;42.570;23.676;2023-06-05T03:28:40;57190.16;;;-147.01;100.00
10958;BME280;5531;42.570;23.676;2023-06-05T03:31:12;57190.16;;;-147.01;100.00
10958;BME280;5531;42.570;23.676;2023-06-05T03:33:41;57190.16;;;-147.01;100.00
10958;BME280;5531;42.570;23.676;2023-06-05T03:36:10;57190.16;;;-147.01;100.00
10958;BME280;5531;42.570;23.676;2023-06-05T03:38:41;57190.16;;;-147.01;100.00
10958;BME280;5531;42.570;23.676;2023-06-05T03:41:10;57190.16;;;-147.01;100.00
10958;BME280;5531;42.570;23.676;2023-06-05T03:43:39;57190.16;;;-147.01;100.00
10958;BME280;5531;42.570;23.676;2023-06-05T03:46:10;57190.16;;;-147.01;100.00
10958;BME280;5531;42.570;23.676;2023-06-05T03:48:44;57190.16;;;-147.01;100.00
10958;BME280;5531;42.570;23.676;2023-06-05T03:51:14;57190.16;;;-147.01;100.00
10958;BME280;5531;42.570;23.676;2023-06-05T03:53:45;57190.16;;;-147.01;100.00
10958;BME280;5531;42.570;23.676;2023-06-05T03:56:20;57190.16;;;-147.01;100.00
10958;BME280;5531;42.570;23.676;2023-06-05T03:58:54;57190.16;;;-147.01;100.00
10958;BME280;5531;42.570;23.676;2023-06-05T04:01:26;57190.16;;;-147.01;100.00
10958;BME280;5531;42.570;23.676;2023-06-05T04:03:55;57190.16;;;-147.01;100.00
10958;BME280;5531;42.570;23.676;2023-06-05T04:06:24;57190.16;;;-147.01;100.00
10958;BME280;5531;42.570;23.676;2023-06-05T04:08:53;57190.16;;;-147.01;100.00
10958;BME280;5531;42.570;23.676;2023-06-05T04:11:23;57190.16;;;-147.01;100.00
10958;BME280;5531;42.570;23.676;2023-06-05T04:13:52;57190.16;;;-147.01;100.00
10958;BME280;5531;42.570;23.676;2023-06-05T04:16:21;57190.16;;;-147.01;100.00
10958;BME280;5531;42.570;23.676;2023-06-05T04:18:53;57190.16;;;-147.01;100.00
10958;BME280;5531;42.570;23.676;2023-06-05T04:21:22;57190.16;;;-147.01;100.00
10958;BME280;5531;42.570;23.676;2023-06-05T04:23:51;57190.16;;;-147.01;100.00
10958;BME280;5531;42.570;23.676;2023-06-05T04:26:20;57190.16;;;-147.01;100.00
10958;BME280;5531;42.570;23.676;2023-06-05T04:28:52;57190.16;;;-147.01;100.00
10958;BME280;5531;42.570;23.676;2023-06-05T04:31:22;57190.16;;;-147.01;100.00
10958;BME280;5531;42.570;23.676;2023-06-05T04:33:55;57190.16;;;-147.01;100.00
10958;BME280;5531;42.570;23.676;2023-06-05T04:36:28;57190.16;;;-147.01;100.00
10958;BME280;5531;42.570;23.676;2023-06-05T04:38:57;57190.16;;;-147.01;100.00
10958;BME280;5531;42.570;23.676;2023-06-05T04:41:27;57190.16;;;-147.01;100.00
10958;BME280;5531;42.570;23.676;2023-06-05T04:43:56;57190.16;;;-147.01;100.00
10958;BME280;5531;42.570;23.676;2023-06-05T04:46:25;57190.16;;;-147.01;100.00
10958;BME280;5531;42.570;23.676;2023-06-05T04:48:57;57190.16;;;-147.01;100.00
10958;BME280;5531;42.570;23.676;2023-06-05T04:51:26;57190.16;;;-147.01;100.00
10958;BME280;5531;42.570;23.676;2023-06-05T04:53:55;57190.16;;;-147.01;100.00
10958;BME280;5531;42.570;23.676;2023-06-05T04:56:25;57190.16;;;-147.01;100.00
10958;BME280;5531;42.570;23.676;2023-06-05T04:58:54;57190.16;;;-147.01;100.00
10958;BME280;5531;42.570;23.676;2023-06-05T05:01:25;57190.16;;;-147.01;100.00
10958;BME280;5531;42.570;23.676;2023-06-05T05:03:54;57190.16;;;-147.01;100.00
10958;BME280;5531;42.570;23.676;2023-06-05T05:06:25;57190.16;;;-147.01;100.00
10958;BME280;5531;42.570;23.676;2023-06-05T05:08:54;57190.16;;;-147.01;100.00
10958;BME280;5531;42.570;23.676;2023-06-05T05:11:23;57190.16;;;-147.01;100.00
10958;BME280;5531;42.570;23.676;2023-06-05T05:13:52;57190.16;;;-147.01;100.00
10958;BME280;5531;42.570;23.676;2023-06-05T05:16:21;57190.16;;;-147.01;100.00
10958;BME280;5531;42.570;23.676;2023-06-05T05:18:51;57190.16;;;-147.01;100.00
10958;BME280;5531;42.570;23.676;2023-06-05T05:21:20;57190.16;;;-147.01;100.00
10958;BME280;5531;42.570;23.676;2023-06-05T05:23:51;57190.16;;;-147.01;100.00
10958;BME280;5531;42.570;23.676;2023-06-05T05:26:21;57190.16;;;-147.01;100.00
10958;BME280;5531;42.570;23.676;2023-06-05T05:28:50;57190.16;;;-147.01;100.00
10958;BME280;5531;42.570;23.676;2023-06-05T05:31:19;57190.16;;;-147.01;100.00
10958;BME280;5531;42.570;23.676;2023-06-05T05:33:48;57190.16;;;-147.01;100.00
10958;BME280;5531;42.570;23.676;2023-06-05T05:36:18;57190.16;;;-147.01;100.00
10958;BME280;5531;42.570;23.676;2023-06-05T05:38:47;57190.16;;;-147.01;100.00
10958;BME280;5531;42.570;23.676;2023-06-05T05:41:19;57190.16;;;-147.01;100.00
10958;BME280;5531;42.570;23.676;2023-06-05T05:43:48;57190.16;;;-147.01;100.00
10958;BME280;5531;42.570;23.676;2023-06-05T05:46:17;57190.16;;;-147.01;100.00
10958;BME280;5531;42.570;23.676;2023-06-05T05:48:46;57190.16;;;-147.01;100.00
10958;BME280;5531;42.570;23.676;2023-06-05T05:51:15;57190.16;;;-147.01;100.00
10958;BME280;5531;42.570;23.676;2023-06-05T05:53:45;57190.16;;;-147.01;100.00
10958;BME280;5531;42.570;23.676;2023-06-05T05:56:14;57190.16;;;-147.01;100.00
10958;BME280;5531;42.570;23.676;2023-06-05T05:58:46;57190.16;;;-147.01;100.00
10958;BME280;5531;42.570;23.676;2023-06-05T06:01:15;57190.16;;;-147.01;100.00
10958;BME280;5531;42.570;23.676;2023-06-05T06:03:44;57190.16;;;-147.01;100.00
10958;BME280;5531;42.570;23.676;2023-06-05T06:06:13;57190.16;;;-147.01;100.00
10958;BME280;5531;42.570;23.676;2023-06-05T06:08:42;57190.16;;;-147.01;100.00
10958;BME280;5531;42.570;23.676;2023-06-05T06:11:11;57190.16;;;-147.01;100.00
10958;BME280;5531;42.570;23.676;2023-06-05T06:13:41;57190.16;;;-147.01;100.00
10958;BME280;5531;42.570;23.676;2023-06-05T06:16:13;57190.16;;;-147.01;100.00
10958;BME280;5531;42.570;23.676;2023-06-05T06:18:42;57190.16;;;-147.01;100.00
10958;BME280;5531;42.570;23.676;2023-06-05T06:21:11;57190.16;;;-147.01;100.00
10958;BME280;5531;42.570;23.676;2023-06-05T06:23:40;57190.16;;;-147.01;100.00
10958;BME280;5531;42.570;23.676;2023-06-05T06:26:10;57190.16;;;-147.01;100.00
10958;BME280;5531;42.570;23.676;2023-06-05T06:28:40;57190.16;;;-147.01;100.00
10958;BME280;5531;42.570;23.676;2023-06-05T06:31:12;57190.16;;;-147.01;100.00
10958;BME280;5531;42.570;23.676;2023-06-05T06:33:41;57190.16;;;-147.01;100.00
10958;BME280;5531;42.570;23.676;2023-06-05T06:36:10;57190.16;;;-147.01;100.00
10958;BME280;5531;42.570;23.676;2023-06-05T06:38:39;57190.16;;;-147.01;100.00
10958;BME280;5531;42.570;23.676;2023-06-05T06:41:09;57190.16;;;-147.01;100.00
10958;BME280;5531;42.570;23.676;2023-06-05T06:43:38;57190.16;;;-147.01;100.00
10958;BME280;5531;42.570;23.676;2023-06-05T06:46:07;57190.16;;;-147.01;100.00
10958;BME280;5531;42.570;23.676;2023-06-05T06:48:38;57190.16;;;-147.01;100.00
10958;BME280;5531;42.570;23.676;2023-06-05T06:51:07;57190.16;;;-147.01;100.00
10958;BME280;5531;42.570;23.676;2023-06-05T06:53:36;57190.16;;;-147.01;100.00
10958;BME280;5531;42.570;23.676;2023-06-05T06:56:06;57190.16;;;-147.01;100.00
10958;BME280;5531;42.570;23.676;2023-06-05T06:58:36;57190.16;;;-147.01;100.00
10958;BME280;5531;42.570;23.676;2023-06-05T07:01:05;57190.16;;;-147.01;100.00
10958;BME280;5531;42.570;23.676;2023-06-05T07:03:34;57190.16;;;-147.01;100.00
10958;BME280;5531;42.570;23.676;2023-06-05T07:06:06;57190.16;;;-147.01;100.00
10958;BME280;5531;42.570;23.676;2023-06-05T07:08:35;57190.16;;;-147.01;100.00
10958;BME280;5531;42.570;23.676;2023-06-05T07:11:04;57190.16;;;-147.01;100.00
10958;BME280;5531;42.570;23.676;2023-06-05T07:13:35;57190.16;;;-147.01;100.00
10958;BME280;5531;42.570;23.676;2023-06-05T07:16:06;57190.16;;;-147.01;100.00
10958;BME280;5531;42.570;23.676;2023-06-05T07:18:35;57190.16;;;-147.01;100.00
10958;BME280;5531;42.570;23.676;2023-06-05T07:21:09;57190.16;;;-147.01;100.00
10958;BME280;5531;42.570;23.676;2023-06-05T07:23:38;57190.16;;;-147.01;100.00
10958;BME280;5531;42.570;23.676;2023-06-05T07:26:08;57190.16;;;-147.01;100.00
10958;BME280;5531;42.570;23.676;2023-06-05T07:28:38;57190.16;;;-147.01;100.00
10958;BME280;5531;42.570;23.676;2023-06-05T07:31:07;57190.16;;;-147.01;100.00
10958;BME280;5531;42.570;23.676;2023-06-05T07:33:36;57190.16;;;-147.01;100.00
10958;BME280;5531;42.570;23.676;2023-06-05T07:36:11;57190.16;;;-147.01;100.00
10958;BME280;5531;42.570;23.676;2023-06-05T07:38:42;57190.16;;;-147.01;100.00
10958;BME280;5531;42.570;23.676;2023-06-05T07:41:13;57190.16;;;-147.01;100.00
10958;BME280;5531;42.570;23.676;2023-06-05T07:43:45;57190.16;;;-147.01;100.00
10958;BME280;5531;42.570;23.676;2023-06-05T07:46:14;57190.16;;;-147.01;100.00
10958;BME280;5531;42.570;23.676;2023-06-05T07:48:43;57190.16;;;-147.01;100.00
10958;BME280;5531;42.570;23.676;2023-06-05T07:51:15;57190.16;;;-147.01;100.00
10958;BME280;5531;42.570;23.676;2023-06-05T07:53:44;57190.16;;;-147.01;100.00
10958;BME280;5531;42.570;23.676;2023-06-05T07:56:13;57190.16;;;-147.01;100.00
10958;BME280;5531;42.570;23.676;2023-06-05T07:58:42;57190.16;;;-147.01;100.00
10958;BME280;5531;42.570;23.676;2023-06-05T08:01:12;57190.16;;;-147.01;100.00
10958;BME280;5531;42.570;23.676;2023-06-05T08:03:41;57190.16;;;-147.01;100.00
10958;BME280;5531;42.570;23.676;2023-06-05T08:06:10;57190.16;;;-147.01;100.00
10958;BME280;5531;42.570;23.676;2023-06-05T08:08:44;57190.16;;;-147.01;100.00
10958;BME280;5531;42.570;23.676;2023-06-05T08:11:13;57190.16;;;-147.01;100.00
10958;BME280;5531;42.570;23.676;2023-06-05T08:13:42;57190.16;;;-147.01;100.00
10958;BME280;5531;42.570;23.676;2023-06-05T08:16:14;57190.16;;;-147.01;100.00
10958;BME280;5531;42.570;23.676;2023-06-05T08:18:43;57190.16;;;-147.01;100.00
10958;BME280;5531;42.570;23.676;2023-06-05T08:21:13;57190.16;;;-147.01;100.00
10958;BME280;5531;42.570;23.676;2023-06-05T08:23:45;57190.16;;;-147.01;100.00
10958;BME280;5531;42.570;23.676;2023-06-05T08:26:18;57190.16;;;-147.01;100.00
10958;BME280;5531;42.570;23.676;2023-06-05T08:28:50;57190.16;;;-147.01;100.00
10958;BME280;5531;42.570;23.676;2023-06-05T08:31:19;57190.16;;;-147.01;100.00
10958;BME280;5531;42.570;23.676;2023-06-05T08:33:52;57190.16;;;-147.01;100.00
10958;BME280;5531;42.570;23.676;2023-06-05T08:36:21;57190.16;;;-147.01;100.00
10958;BME280;5531;42.570;23.676;2023-06-05T08:38:53;57190.16;;;-147.01;100.00
10958;BME280;5531;42.570;23.676;2023-06-05T08:41:22;57190.16;;;-147.01;100.00
10958;BME280;5531;42.570;23.676;2023-06-05T08:43:52;57190.16;;;-147.01;100.00
10958;BME280;5531;42.570;23.676;2023-06-05T08:46:21;57190.16;;;-147.01;100.00
10958;BME280;5531;42.570;23.676;2023-06-05T08:48:51;57190.16;;;-147.01;100.00
10958;BME280;5531;42.570;23.676;2023-06-05T08:51:21;57190.16;;;-147.01;100.00
10958;BME280;5531;42.570;23.676;2023-06-05T08:53:57;57190.16;;;-147.01;100.00
10958;BME280;5531;42.570;23.676;2023-06-05T08:56:29;57190.16;;;-147.01;100.00
10958;BME280;5531;42.570;23.676;2023-06-05T08:58:58;57190.16;;;-147.01;100.00
10958;BME280;5531;42.570;23.676;2023-06-05T09:01:28;57190.16;;;-147.01;100.00
10958;BME280;5531;42.570;23.676;2023-06-05T09:03:59;57190.16;;;-147.01;100.00
10958;BME280;5531;42.570;23.676;2023-06-05T09:06:28;57190.16;;;-147.01;100.00
10958;BME280;5531;42.570;23.676;2023-06-05T09:09:01;57190.16;;;-147.01;100.00
10958;BME280;5531;42.570;23.676;2023-06-05T09:11:32;57190.16;;;-147.01;100.00
10958;BME280;5531;42.570;23.676;2023-06-05T09:14:02;57190.16;;;-147.01;100.00
10958;BME280;5531;42.570;23.676;2023-06-05T09:16:35;57190.16;;;-147.01;100.00
10958;BME280;5531;42.570;23.676;2023-06-05T09:19:05;57190.16;;;-147.01;100.00
10958;BME280;5531;42.570;23.676;2023-06-05T09:21:35;57190.16;;;-147.01;100.00
10958;BME280;5531;42.570;23.676;2023-06-05T09:24:14;57190.16;;;-147.01;100.00
10958;BME280;5531;42.570;23.676;2023-06-05T09:26:53;57190.16;;;-147.01;100.00
10958;BME280;5531;42.570;23.676;2023-06-05T09:29:24;57190.16;;;-147.01;100.00
10958;BME280;5531;42.570;23.676;2023-06-05T09:31:55;57190.16;;;-147.01;100.00
10958;BME280;5531;42.570;23.676;2023-06-05T09:34:26;57190.16;;;-147.01;100.00
10958;BME280;5531;42.570;23.676;2023-06-05T09:36:56;57190.16;;;-147.01;100.00
10958;BME280;5531;42.570;23.676;2023-06-05T09:39:29;57190.16;;;-147.01;100.00
10958;BME280;5531;42.570;23.676;2023-06-05T09:41:59;57190.16;;;-147.01;100.00
10958;BME280;5531;42.570;23.676;2023-06-05T09:44:30;57190.16;;;-147.01;100.00
10958;BME280;5531;42.570;23.676;2023-06-05T09:47:00;57190.16;;;-147.01;100.00
10958;BME280;5531;42.570;23.676;2023-06-05T09:49:32;57190.16;;;-147.01;100.00
10958;BME280;5531;42.570;23.676;2023-06-05T09:52:01;57190.16;;;-147.01;100.00
10958;BME280;5531;42.570;23.676;2023-06-05T09:54:35;57190.16;;;-147.01;100.00
10958;BME280;5531;42.570;23.676;2023-06-05T09:57:06;57190.16;;;-147.01;100.00
10958;BME280;5531;42.570;23.676;2023-06-05T09:59:44;57190.16;;;-147.01;100.00
10958;BME280;5531;42.570;23.676;2023-06-05T10:02:14;57190.16;;;-147.01;100.00
10958;BME280;5531;42.570;23.676;2023-06-05T10:04:46;57190.16;;;-147.01;100.00
10958;BME280;5531;42.570;23.676;2023-06-05T10:07:17;57190.16;;;-147.01;100.00
10958;BME280;5531;42.570;23.676;2023-06-05T10:09:49;57190.16;;;-147.01;100.00
10958;BME280;5531;42.570;23.676;2023-06-05T10:12:20;57190.16;;;-147.01;100.00
10958;BME280;5531;42.570;23.676;2023-06-05T10:14:49;57190.16;;;-147.01;100.00
10958;BME280;5531;42.570;23.676;2023-06-05T10:17:21;57190.16;;;-147.01;100.00
10958;BME280;5531;42.570;23.676;2023-06-05T10:19:53;57190.16;;;-147.01;100.00
10958;BME280;5531;42.570;23.676;2023-06-05T10:22:22;57190.16;;;-147.01;100.00
10958;BME280;5531;42.570;23.676;2023-06-05T10:24:58;57190.16;;;-147.01;100.00
10958;BME280;5531;42.570;23.676;2023-06-05T10:27:55;57190.16;;;-147.01;100.00
10958;BME280;5531;42.570;23.676;2023-06-05T10:33:40;57190.16;;;-147.01;100.00
10958;BME280;5531;42.570;23.676;2023-06-05T10:36:24;57190.16;;;-147.01;100.00
10958;BME280;5531;42.570;23.676;2023-06-05T10:39:06;57190.16;;;-147.01;100.00
10958;BME280;5531;42.570;23.676;2023-06-05T10:41:39;57190.16;;;-147.01;100.00
10958;BME280;5531;42.570;23.676;2023-06-05T10:44:08;57190.16;;;-147.01;100.00
10958;BME280;5531;42.570;23.676;2023-06-05T10:46:40;57190.16;;;-147.01;100.00
10958;BME280;5531;42.570;23.676;2023-06-05T10:49:13;57190.16;;;-147.01;100.00
10958;BME280;5531;42.570;23.676;2023-06-05T10:51:45;57190.16;;;-147.01;100.00
10958;BME280;5531;42.570;23.676;2023-06-05T10:54:53;57190.16;;;-147.01;100.00
10958;BME280;5531;42.570;23.676;2023-06-05T10:57:08;57190.16;;;-147.01;100.00
10958;BME280;5531;42.570;23.676;2023-06-05T10:59:39;57190.16;;;-147.01;100.00
10958;BME280;5531;42.570;23.676;2023-06-05T11:02:24;57190.16;;;-147.01;100.00
10958;BME280;5531;42.570;23.676;2023-06-05T11:05:10;57190.16;;;-147.01;100.00
10958;BME280;5531;42.570;23.676;2023-06-05T11:07:40;57190.16;;;-147.01;100.00
10958;BME280;5531;42.570;23.676;2023-06-05T12:39:35;92434.06;;;22.08;79.80
10958;BME280;5531;42.570;23.676;2023-06-05T12:42:05;92435.53;;;22.26;76.88
10958;BME280;5531;42.570;23.676;2023-06-05T12:44:34;92433.94;;;22.25;79.09
10958;BME280;5531;42.570;23.676;2023-06-05T12:47:03;92438.81;;;21.95;76.58
10958;BME280;5531;42.570;23.676;2023-06-05T12:49:32;92433.44;;;21.58;77.45
10958;BME280;5531;42.570;23.676;2023-06-05T12:52:01;92436.22;;;21.46;80.26
10958;BME280;5531;42.570;23.676;2023-06-05T12:54:34;92434.41;;;21.24;79.27
10958;BME280;5531;42.570;23.676;2023-06-05T12:57:03;92434.22;;;21.31;81.98
10958;BME280;5531;42.570;23.676;2023-06-05T12:59:33;92438.47;;;21.05;81.14
10958;BME280;5531;42.570;23.676;2023-06-05T13:02:02;92429.38;;;21.01;82.01
10958;BME280;5531;42.570;23.676;2023-06-05T13:04:32;92426.84;;;20.89;82.62
10958;BME280;5531;42.570;23.676;2023-06-05T13:07:01;92419.78;;;21.00;82.92
10958;BME280;5531;42.570;23.676;2023-06-05T13:09:34;92426.22;;;21.04;83.42
10958;BME280;5531;42.570;23.676;2023-06-05T13:12:03;92426.53;;;21.08;81.98
10958;BME280;5531;42.570;23.676;2023-06-05T13:14:34;92417.69;;;21.29;84.36
10958;BME280;5531;42.570;23.676;2023-06-05T13:17:04;92414.97;;;21.24;84.82
10958;BME280;5531;42.570;23.676;2023-06-05T13:19:33;92418.59;;;21.13;82.51
10958;BME280;5531;42.570;23.676;2023-06-05T13:22:02;92419.94;;;21.15;83.25
10958;BME280;5531;42.570;23.676;2023-06-05T13:24:35;92416.84;;;21.23;83.05
10958;BME280;5531;42.570;23.676;2023-06-05T13:27:04;92411.13;;;21.15;80.74
10958;BME280;5531;42.570;23.676;2023-06-05T13:29:33;92413.38;;;21.28;81.24
10958;BME280;5531;42.570;23.676;2023-06-05T13:32:03;92411.84;;;21.32;83.31
10958;BME280;5531;42.570;23.676;2023-06-05T13:34:32;92396.00;;;21.48;80.15
10958;BME280;5531;42.570;23.676;2023-06-05T13:37:01;92405.56;;;21.43;80.02
10958;BME280;5531;42.570;23.676;2023-06-05T13:39:30;92407.84;;;21.35;78.67
10958;BME280;5531;42.570;23.676;2023-06-05T13:42:01;92412.75;;;21.43;78.56
10958;BME280;5531;42.570;23.676;2023-06-05T13:44:31;92416.06;;;21.28;78.81
10958;BME280;5531;42.570;23.676;2023-06-05T13:47:00;92416.47;;;21.42;81.31
10958;BME280;5531;42.570;23.676;2023-06-05T13:49:29;92417.19;;;21.32;78.53
10958;BME280;5531;42.570;23.676;2023-06-05T13:51:58;92418.25;;;21.36;77.88
10958;BME280;5531;42.570;23.676;2023-06-05T13:54:28;92416.22;;;21.43;79.61
10958;BME280;5531;42.570;23.676;2023-06-05T13:56:57;92406.53;;;21.59;78.60
10958;BME280;5531;42.570;23.676;2023-06-05T13:59:29;92416.47;;;21.69;77.86
10958;BME280;5531;42.570;23.676;2023-06-05T14:01:58;92413.97;;;21.95;79.05
10958;BME280;5531;42.570;23.676;2023-06-05T14:04:27;92410.09;;;22.13;76.10
10958;BME280;5531;42.570;23.676;2023-06-05T14:06:56;92405.16;;;22.32;75.00
10958;BME280;5531;42.570;23.676;2023-06-05T14:09:25;92415.19;;;22.62;76.89
10958;BME280;5531;42.570;23.676;2023-06-05T14:11:55;92413.81;;;22.55;75.51
10958;BME280;5531;42.570;23.676;2023-06-05T14:14:25;92417.75;;;22.37;74.99
10958;BME280;5531;42.570;23.676;2023-06-05T14:16:56;92408.63;;;22.32;76.19
10958;BME280;5531;42.570;23.676;2023-06-05T14:19:25;92396.63;;;22.35;73.49
10958;BME280;5531;42.570;23.676;2023-06-05T14:21:54;92401.97;;;22.35;74.27